createdAt,value
2018-03-19T00:00:33.681Z,17.00
2018-03-19T00:01:38.887Z,17.00
2018-03-19T00:02:44.193Z,17.00
2018-03-19T00:03:49.527Z,17.00
2018-03-19T00:04:54.727Z,17.00
2018-03-19T00:06:00.022Z,17.00
2018-03-19T00:07:05.233Z,17.00
2018-03-19T00:08:10.504Z,17.00
2018-03-19T00:09:15.733Z,17.00
2018-03-19T00:10:21.102Z,17.00
2018-03-19T00:11:26.316Z,17.00
2018-03-19T00:12:31.621Z,17.10
2018-03-19T00:13:36.950Z,17.10
2018-03-19T00:14:42.159Z,17.00
2018-03-19T00:15:47.431Z,17.00
2018-03-19T00:16:52.644Z,17.00
2018-03-19T00:17:57.948Z,17.00
2018-03-19T00:19:03.265Z,17.00
2018-03-19T00:20:08.492Z,17.00
2018-03-19T00:21:13.766Z,17.00
2018-03-19T00:22:18.956Z,17.00
2018-03-19T00:23:24.273Z,17.00
2018-03-19T00:24:29.652Z,16.90
2018-03-19T00:25:34.888Z,17.00
2018-03-19T00:26:40.207Z,17.00
2018-03-19T00:27:45.956Z,17.00
2018-03-19T00:28:51.253Z,17.00
2018-03-19T00:29:56.529Z,17.00
2018-03-19T00:31:01.882Z,17.00
2018-03-19T00:32:07.181Z,17.00
2018-03-19T00:33:12.613Z,17.00
2018-03-19T00:34:17.956Z,17.00
2018-03-19T00:35:23.304Z,16.90
2018-03-19T00:36:28.529Z,17.00
2018-03-19T00:37:33.790Z,16.90
2018-03-19T00:38:39.061Z,16.90
2018-03-19T00:39:44.349Z,16.90
2018-03-19T00:40:49.638Z,17.00
2018-03-19T00:41:55.016Z,16.90
2018-03-19T00:43:00.355Z,16.90
2018-03-19T00:44:05.690Z,16.90
2018-03-19T00:45:10.924Z,16.90
2018-03-19T00:46:16.172Z,16.90
2018-03-19T00:47:21.469Z,16.90
2018-03-19T00:48:26.817Z,16.90
2018-03-19T00:49:32.309Z,16.90
2018-03-19T00:50:37.566Z,16.90
2018-03-19T00:51:42.978Z,16.90
2018-03-19T00:52:48.267Z,16.90
2018-03-19T00:53:53.560Z,16.90
2018-03-19T00:54:58.908Z,16.90
2018-03-19T00:56:04.278Z,16.90
2018-03-19T00:57:09.471Z,16.90
2018-03-19T00:58:14.859Z,16.90
2018-03-19T00:59:20.230Z,16.90
2018-03-19T01:00:25.330Z,16.90
2018-03-19T01:01:30.419Z,16.90
2018-03-19T01:02:35.512Z,16.90
2018-03-19T01:03:40.713Z,16.80
2018-03-19T01:04:46.255Z,16.90
2018-03-19T01:05:51.377Z,16.90
2018-03-19T01:06:56.591Z,16.80
2018-03-19T01:08:01.851Z,16.80
2018-03-19T01:09:06.852Z,16.80
2018-03-19T01:10:12.078Z,16.80
2018-03-19T01:11:17.268Z,16.80
2018-03-19T01:12:22.206Z,16.80
2018-03-19T01:13:27.252Z,16.80
2018-03-19T01:14:32.264Z,16.80
2018-03-19T01:15:37.197Z,16.80
2018-03-19T01:16:42.445Z,16.80
2018-03-19T01:17:47.484Z,16.80
2018-03-19T01:18:52.680Z,16.80
2018-03-19T01:19:57.909Z,16.80
2018-03-19T01:21:02.997Z,16.80
2018-03-19T01:22:08.162Z,16.80
2018-03-19T01:23:13.458Z,16.80
2018-03-19T01:24:18.708Z,16.80
2018-03-19T01:25:23.909Z,16.80
2018-03-19T01:26:29.183Z,16.80
2018-03-19T01:27:34.358Z,16.80
2018-03-19T01:28:39.547Z,16.80
2018-03-19T01:29:44.666Z,16.80
2018-03-19T01:30:49.917Z,16.80
2018-03-19T01:31:55.296Z,16.80
2018-03-19T01:33:00.505Z,16.80
2018-03-19T01:34:05.669Z,16.80
2018-03-19T01:35:10.881Z,16.80
2018-03-19T01:36:15.990Z,16.80
2018-03-19T01:37:21.270Z,16.80
2018-03-19T01:38:26.413Z,16.80
2018-03-19T01:39:31.628Z,16.80
2018-03-19T01:40:36.568Z,16.70
2018-03-19T01:41:41.635Z,16.80
2018-03-19T01:42:46.662Z,16.80
2018-03-19T01:43:51.878Z,16.70
2018-03-19T01:44:57.092Z,16.70
2018-03-19T01:46:02.214Z,16.70
2018-03-19T01:47:07.381Z,16.70
2018-03-19T01:48:12.365Z,16.70
2018-03-19T01:49:17.499Z,16.70
2018-03-19T01:50:22.655Z,16.70
2018-03-19T01:51:27.724Z,16.70
2018-03-19T01:52:32.836Z,16.70
2018-03-19T01:53:37.767Z,16.70
2018-03-19T01:54:42.845Z,16.70
2018-03-19T01:55:47.730Z,16.70
2018-03-19T01:56:52.906Z,16.70
2018-03-19T01:57:58.044Z,16.70
2018-03-19T01:59:03.362Z,16.70
2018-03-19T02:00:08.515Z,16.70
2018-03-19T02:01:13.545Z,16.70
2018-03-19T02:02:18.584Z,16.70
2018-03-19T02:03:23.523Z,16.70
2018-03-19T02:04:28.628Z,16.70
2018-03-19T02:05:33.801Z,16.70
2018-03-19T02:06:38.934Z,16.70
2018-03-19T02:07:44.173Z,16.70
2018-03-19T02:08:49.420Z,16.70
2018-03-19T02:09:54.571Z,16.70
2018-03-19T02:10:59.609Z,16.60
2018-03-19T02:12:04.651Z,16.60
2018-03-19T02:13:09.662Z,16.70
2018-03-19T02:14:14.827Z,16.60
2018-03-19T02:15:19.723Z,16.60
2018-03-19T02:16:26.180Z,16.60
2018-03-19T02:17:31.074Z,16.70
2018-03-19T02:18:36.272Z,16.60
2018-03-19T02:19:41.432Z,16.60
2018-03-19T02:20:46.532Z,16.60
2018-03-19T02:21:51.550Z,16.60
2018-03-19T02:22:56.667Z,16.60
2018-03-19T02:24:01.880Z,16.60
2018-03-19T02:25:06.685Z,16.60
2018-03-19T02:26:11.657Z,16.60
2018-03-19T02:27:16.788Z,16.60
2018-03-19T02:28:21.772Z,16.60
2018-03-19T02:29:26.869Z,16.60
2018-03-19T02:30:31.957Z,16.60
2018-03-19T02:31:36.964Z,16.60
2018-03-19T02:32:42.143Z,16.60
2018-03-19T02:33:47.136Z,16.60
2018-03-19T02:34:52.305Z,16.60
2018-03-19T02:35:57.328Z,16.60
2018-03-19T02:37:02.315Z,16.60
2018-03-19T02:38:07.416Z,16.60
2018-03-19T02:39:12.525Z,16.60
2018-03-19T02:40:17.597Z,16.60
2018-03-19T02:41:22.529Z,16.60
2018-03-19T02:42:27.413Z,16.60
2018-03-19T02:43:32.488Z,16.60
2018-03-19T02:44:37.444Z,16.60
2018-03-19T02:45:42.306Z,16.60
2018-03-19T02:46:47.452Z,16.60
2018-03-19T02:47:52.564Z,16.60
2018-03-19T02:48:57.637Z,16.60
2018-03-19T02:50:02.708Z,16.60
2018-03-19T02:51:07.789Z,16.60
2018-03-19T02:52:12.932Z,16.60
2018-03-19T02:53:18.025Z,16.60
2018-03-19T02:54:23.144Z,16.60
2018-03-19T02:55:28.329Z,16.50
2018-03-19T02:56:33.629Z,16.60
2018-03-19T02:57:38.715Z,16.50
2018-03-19T02:58:43.850Z,16.50
2018-03-19T02:59:48.867Z,16.60
2018-03-19T03:00:54.118Z,16.60
2018-03-19T03:01:59.020Z,16.50
2018-03-19T03:03:03.893Z,16.60
2018-03-19T03:04:08.880Z,16.60
2018-03-19T03:05:13.813Z,16.50
2018-03-19T03:06:18.796Z,16.60
2018-03-19T03:07:23.994Z,16.50
2018-03-19T03:08:29.101Z,16.50
2018-03-19T03:09:34.101Z,16.50
2018-03-19T03:10:39.075Z,16.50
2018-03-19T03:11:44.310Z,16.50
2018-03-19T03:12:49.577Z,16.50
2018-03-19T03:13:54.603Z,16.50
2018-03-19T03:14:59.563Z,16.50
2018-03-19T03:16:04.501Z,16.50
2018-03-19T03:17:09.607Z,16.50
2018-03-19T03:18:14.675Z,16.50
2018-03-19T03:19:19.786Z,16.50
2018-03-19T03:20:24.769Z,16.50
2018-03-19T03:21:29.954Z,16.50
2018-03-19T03:22:35.102Z,16.50
2018-03-19T03:23:40.144Z,16.50
2018-03-19T03:24:45.101Z,16.50
2018-03-19T03:25:50.197Z,16.50
2018-03-19T03:26:55.352Z,16.50
2018-03-19T03:28:00.512Z,16.40
2018-03-19T03:29:05.666Z,16.50
2018-03-19T03:30:10.684Z,16.50
2018-03-19T03:31:15.677Z,16.50
2018-03-19T03:32:20.675Z,16.50
2018-03-19T03:33:25.705Z,16.50
2018-03-19T03:34:30.668Z,16.50
2018-03-19T03:35:35.589Z,16.50
2018-03-19T03:36:40.693Z,16.50
2018-03-19T03:37:45.858Z,16.50
2018-03-19T03:38:50.902Z,16.50
2018-03-19T03:39:55.810Z,16.40
2018-03-19T03:41:00.898Z,16.40
2018-03-19T03:42:06.059Z,16.50
2018-03-19T03:43:11.223Z,16.40
2018-03-19T03:44:16.238Z,16.50
2018-03-19T03:45:21.428Z,16.40
2018-03-19T03:46:26.567Z,16.40
2018-03-19T03:47:31.750Z,16.50
2018-03-19T03:48:36.874Z,16.40
2018-03-19T03:49:41.798Z,16.40
2018-03-19T03:50:46.921Z,16.40
2018-03-19T03:51:52.099Z,16.40
2018-03-19T03:52:57.316Z,16.40
2018-03-19T03:54:02.359Z,16.40
2018-03-19T03:55:07.299Z,16.40
2018-03-19T03:56:12.389Z,16.40
2018-03-19T03:57:17.517Z,16.50
2018-03-19T03:58:22.607Z,16.40
2018-03-19T03:59:27.561Z,16.40
2018-03-19T04:00:32.708Z,16.40
2018-03-19T04:01:37.872Z,16.40
2018-03-19T04:02:43.064Z,16.40
2018-03-19T04:03:48.227Z,16.40
2018-03-19T04:04:53.371Z,16.40
2018-03-19T04:05:58.261Z,16.40
2018-03-19T04:07:03.254Z,16.40
2018-03-19T04:08:08.236Z,16.40
2018-03-19T04:09:13.355Z,16.40
2018-03-19T04:10:18.564Z,16.40
2018-03-19T04:11:23.767Z,16.40
2018-03-19T04:12:28.902Z,16.40
2018-03-19T04:13:33.972Z,16.40
2018-03-19T04:14:39.057Z,16.40
2018-03-19T04:15:44.128Z,16.40
2018-03-19T04:16:49.289Z,16.40
2018-03-19T04:17:54.353Z,16.40
2018-03-19T04:18:59.527Z,16.40
2018-03-19T04:20:04.896Z,16.40
2018-03-19T04:21:09.845Z,16.40
2018-03-19T04:22:14.968Z,16.40
2018-03-19T04:23:19.981Z,16.40
2018-03-19T04:24:25.108Z,16.40
2018-03-19T04:25:30.048Z,16.40
2018-03-19T04:26:35.141Z,16.40
2018-03-19T04:27:40.220Z,16.40
2018-03-19T04:28:45.368Z,16.40
2018-03-19T04:29:50.318Z,16.40
2018-03-19T04:30:55.311Z,16.40
2018-03-19T04:32:00.249Z,16.30
2018-03-19T04:33:05.384Z,16.30
2018-03-19T04:34:10.557Z,16.30
2018-03-19T04:35:15.631Z,16.40
2018-03-19T04:36:20.681Z,16.30
2018-03-19T04:37:25.715Z,16.30
2018-03-19T04:38:30.874Z,16.30
2018-03-19T04:39:35.899Z,16.30
2018-03-19T04:40:41.113Z,16.30
2018-03-19T04:41:46.256Z,16.30
2018-03-19T04:42:51.439Z,16.30
2018-03-19T04:43:56.629Z,16.30
2018-03-19T04:45:01.637Z,16.30
2018-03-19T04:46:06.720Z,16.30
2018-03-19T04:47:12.279Z,16.30
2018-03-19T04:48:17.422Z,16.30
2018-03-19T04:49:22.645Z,16.30
2018-03-19T04:50:28.742Z,16.30
2018-03-19T04:51:33.641Z,16.30
2018-03-19T04:52:38.756Z,16.30
2018-03-19T04:53:43.917Z,16.30
2018-03-19T04:54:48.871Z,16.30
2018-03-19T04:55:53.912Z,16.30
2018-03-19T04:56:58.890Z,16.30
2018-03-19T04:58:04.002Z,16.30
2018-03-19T04:59:08.986Z,16.30
2018-03-19T05:00:14.025Z,16.30
2018-03-19T05:01:19.137Z,16.30
2018-03-19T05:02:24.090Z,16.30
2018-03-19T05:03:29.116Z,16.30
2018-03-19T05:04:34.073Z,16.30
2018-03-19T05:05:38.945Z,16.30
2018-03-19T05:06:43.937Z,16.30
2018-03-19T05:07:49.110Z,16.30
2018-03-19T05:08:54.224Z,16.30
2018-03-19T05:09:59.200Z,16.30
2018-03-19T05:11:04.229Z,16.30
2018-03-19T05:12:09.142Z,16.30
2018-03-19T05:13:14.012Z,16.30
2018-03-19T05:14:18.950Z,16.30
2018-03-19T05:15:23.943Z,16.30
2018-03-19T05:16:29.142Z,16.30
2018-03-19T05:17:34.384Z,16.30
2018-03-19T05:18:39.598Z,16.30
2018-03-19T05:19:44.845Z,16.30
2018-03-19T05:20:50.039Z,16.30
2018-03-19T05:21:55.204Z,16.30
2018-03-19T05:23:00.470Z,16.30
2018-03-19T05:24:05.622Z,16.30
2018-03-19T05:25:10.831Z,16.30
2018-03-19T05:26:15.971Z,16.30
2018-03-19T05:27:24.010Z,16.20
2018-03-19T05:28:29.181Z,16.30
2018-03-19T05:29:34.277Z,16.30
2018-03-19T05:30:39.343Z,16.20
2018-03-19T05:31:44.445Z,16.20
2018-03-19T05:32:49.555Z,16.20
2018-03-19T05:33:54.552Z,16.30
2018-03-19T05:34:59.547Z,16.20
2018-03-19T05:36:04.680Z,16.20
2018-03-19T05:37:09.663Z,16.20
2018-03-19T05:38:15.734Z,16.20
2018-03-19T05:39:20.863Z,16.20
2018-03-19T05:40:26.151Z,16.20
2018-03-19T05:41:31.149Z,16.30
2018-03-19T05:42:36.178Z,16.30
2018-03-19T05:43:41.352Z,16.40
2018-03-19T05:44:46.433Z,16.40
2018-03-19T05:45:51.638Z,16.40
2018-03-19T05:46:56.661Z,16.40
2018-03-19T05:48:01.617Z,16.50
2018-03-19T05:49:06.744Z,16.60
2018-03-19T05:50:12.012Z,16.70
2018-03-19T05:51:17.138Z,16.80
2018-03-19T05:52:22.373Z,16.90
2018-03-19T05:53:27.588Z,17.00
2018-03-19T05:54:32.860Z,17.20
2018-03-19T05:55:38.089Z,17.30
2018-03-19T05:56:43.321Z,17.50
2018-03-19T05:57:48.471Z,17.60
2018-03-19T05:58:53.576Z,17.80
2018-03-19T05:59:58.859Z,17.90
2018-03-19T06:01:04.295Z,18.10
2018-03-19T06:02:09.433Z,18.20
2018-03-19T06:03:14.517Z,18.30
2018-03-19T06:04:19.717Z,18.40
2018-03-19T06:05:24.944Z,18.50
2018-03-19T06:06:30.105Z,18.50
2018-03-19T06:07:35.452Z,18.50
2018-03-19T06:08:40.694Z,18.50
2018-03-19T06:09:45.779Z,18.50
2018-03-19T06:10:50.931Z,18.60
2018-03-19T06:11:55.981Z,18.60
2018-03-19T06:13:01.134Z,18.70
2018-03-19T06:14:06.633Z,18.80
2018-03-19T06:15:11.644Z,18.80
2018-03-19T06:16:16.827Z,18.80
2018-03-19T06:17:21.973Z,18.80
2018-03-19T06:18:26.936Z,18.90
2018-03-19T06:19:32.458Z,18.90
2018-03-19T06:20:37.625Z,18.90
2018-03-19T06:21:42.704Z,18.90
2018-03-19T06:22:47.974Z,18.90
2018-03-19T06:23:52.901Z,18.90
2018-03-19T06:24:57.975Z,18.90
2018-03-19T06:26:03.085Z,18.90
2018-03-19T06:27:08.204Z,18.90
2018-03-19T06:28:13.419Z,18.90
2018-03-19T06:29:18.549Z,18.90
2018-03-19T06:30:23.728Z,18.80
2018-03-19T06:31:28.870Z,18.80
2018-03-19T06:32:34.070Z,18.80
2018-03-19T06:33:39.068Z,18.80
2018-03-19T06:34:44.339Z,18.80
2018-03-19T06:35:57.221Z,18.80
2018-03-19T06:37:09.373Z,18.80
2018-03-19T06:38:22.662Z,18.80
2018-03-19T06:39:34.398Z,18.80
2018-03-19T06:40:44.652Z,18.80
2018-03-19T06:41:54.144Z,18.80
2018-03-19T06:43:03.835Z,18.80
2018-03-19T06:44:14.597Z,18.70
2018-03-19T06:45:24.387Z,18.70
2018-03-19T06:46:35.787Z,18.60
2018-03-19T06:47:45.765Z,18.50
2018-03-19T06:48:55.198Z,18.40
2018-03-19T06:50:06.240Z,18.40
2018-03-19T06:51:16.350Z,18.40
2018-03-19T06:52:27.231Z,18.40
2018-03-19T06:53:38.230Z,18.30
2018-03-19T06:54:49.701Z,18.30
2018-03-19T06:56:00.983Z,18.20
2018-03-19T06:57:10.460Z,18.20
2018-03-19T06:58:21.861Z,18.30
2018-03-19T06:59:32.560Z,18.30
2018-03-19T07:00:42.968Z,18.30
2018-03-19T07:01:56.169Z,18.30
2018-03-19T07:03:06.564Z,18.30
2018-03-19T07:04:16.233Z,18.20
2018-03-19T07:05:26.660Z,18.20
2018-03-19T07:06:32.370Z,18.20
2018-03-19T07:07:37.414Z,18.10
2018-03-19T07:08:42.562Z,18.10
2018-03-19T07:09:47.704Z,18.10
2018-03-19T07:10:52.858Z,18.10
2018-03-19T07:11:58.073Z,18.10
2018-03-19T07:13:03.007Z,18.10
2018-03-19T07:14:08.064Z,18.10
2018-03-19T07:15:13.156Z,18.10
2018-03-19T07:16:23.630Z,18.00
2018-03-19T07:17:28.554Z,18.00
2018-03-19T07:18:34.804Z,18.00
2018-03-19T07:19:40.747Z,18.00
2018-03-19T07:20:45.889Z,18.00
2018-03-19T07:21:50.799Z,18.00
2018-03-19T07:22:55.646Z,17.90
2018-03-19T07:24:00.567Z,17.90
2018-03-19T07:25:05.459Z,17.90
2018-03-19T07:26:10.429Z,17.90
2018-03-19T07:27:15.348Z,17.90
2018-03-19T07:28:20.312Z,18.00
2018-03-19T07:29:25.408Z,18.00
2018-03-19T07:30:30.629Z,18.00
2018-03-19T07:31:35.698Z,18.00
2018-03-19T07:32:40.734Z,18.00
2018-03-19T07:33:45.865Z,18.00
2018-03-19T07:34:51.002Z,18.00
2018-03-19T07:35:56.056Z,18.00
2018-03-19T07:37:00.992Z,18.00
2018-03-19T07:38:06.211Z,18.00
2018-03-19T07:39:11.425Z,18.00
2018-03-19T07:40:16.498Z,18.00
2018-03-19T07:41:21.775Z,18.00
2018-03-19T07:42:26.895Z,18.00
2018-03-19T07:43:32.049Z,18.00
2018-03-19T07:44:37.186Z,18.00
2018-03-19T07:45:42.340Z,18.00
2018-03-19T07:46:47.440Z,18.00
2018-03-19T07:47:52.647Z,17.90
2018-03-19T07:48:57.788Z,18.00
2018-03-19T07:50:02.986Z,18.00
2018-03-19T07:51:08.171Z,17.90
2018-03-19T07:52:13.153Z,17.90
2018-03-19T07:53:18.355Z,17.90
2018-03-19T07:54:23.522Z,17.90
2018-03-19T07:55:28.648Z,17.90
2018-03-19T07:56:33.735Z,17.90
2018-03-19T07:57:38.603Z,17.90
2018-03-19T07:58:43.743Z,17.90
2018-03-19T07:59:48.785Z,17.90
2018-03-19T08:00:53.921Z,17.90
2018-03-19T08:01:59.106Z,18.00
2018-03-19T08:03:04.152Z,18.00
2018-03-19T08:04:09.342Z,18.00
2018-03-19T08:05:14.487Z,18.00
2018-03-19T08:06:19.730Z,18.00
2018-03-19T08:07:24.729Z,18.00
2018-03-19T08:08:29.741Z,18.00
2018-03-19T08:09:34.874Z,18.00
2018-03-19T08:10:40.106Z,18.00
2018-03-19T08:11:45.240Z,18.00
2018-03-19T08:12:50.416Z,18.00
2018-03-19T08:13:55.521Z,17.90
2018-03-19T08:15:00.804Z,17.90
2018-03-19T08:16:06.110Z,17.90
2018-03-19T08:17:11.451Z,17.90
2018-03-19T08:18:16.554Z,17.80
2018-03-19T08:19:21.768Z,17.80
2018-03-19T08:20:26.846Z,17.80
2018-03-19T08:21:32.078Z,17.80
2018-03-19T08:22:37.339Z,17.80
2018-03-19T08:23:42.525Z,17.90
2018-03-19T08:24:47.646Z,17.90
2018-03-19T08:25:52.833Z,17.90
2018-03-19T08:26:57.916Z,17.90
2018-03-19T08:28:03.048Z,17.90
2018-03-19T08:29:08.299Z,17.90
2018-03-19T08:30:13.287Z,17.90
2018-03-19T08:31:18.463Z,17.90
2018-03-19T08:32:23.495Z,17.90
2018-03-19T08:33:28.585Z,17.90
2018-03-19T08:34:33.815Z,17.90
2018-03-19T08:35:38.978Z,17.90
2018-03-19T08:36:44.060Z,17.90
2018-03-19T08:37:49.216Z,17.90
2018-03-19T08:38:54.310Z,17.90
2018-03-19T08:39:59.293Z,17.90
2018-03-19T08:41:04.459Z,17.90
2018-03-19T08:42:09.466Z,17.90
2018-03-19T08:43:14.530Z,17.90
2018-03-19T08:44:19.497Z,17.90
2018-03-19T08:45:24.506Z,17.90
2018-03-19T08:46:29.443Z,17.90
2018-03-19T08:47:34.306Z,17.90
2018-03-19T08:48:39.301Z,17.90
2018-03-19T08:49:44.472Z,17.90
2018-03-19T08:50:49.593Z,17.90
2018-03-19T08:51:54.760Z,17.90
2018-03-19T08:52:59.720Z,17.90
2018-03-19T08:54:04.646Z,17.90
2018-03-19T08:55:09.734Z,17.90
2018-03-19T08:56:14.856Z,17.90
2018-03-19T08:57:20.071Z,17.90
2018-03-19T08:58:25.141Z,17.90
2018-03-19T08:59:30.297Z,17.90
2018-03-19T09:00:35.322Z,17.90
2018-03-19T09:01:40.238Z,17.90
2018-03-19T09:02:45.340Z,17.90
2018-03-19T09:03:50.394Z,17.90
2018-03-19T09:04:55.532Z,17.90
2018-03-19T09:06:00.613Z,17.90
2018-03-19T09:07:05.700Z,17.90
2018-03-19T09:08:10.755Z,17.90
2018-03-19T09:09:15.758Z,17.90
2018-03-19T09:10:20.877Z,17.90
2018-03-19T09:11:25.783Z,17.90
2018-03-19T09:12:30.884Z,17.90
2018-03-19T09:13:36.086Z,17.90
2018-03-19T09:14:41.178Z,17.90
2018-03-19T09:15:46.310Z,17.90
2018-03-19T09:16:51.346Z,17.90
2018-03-19T09:17:56.428Z,17.90
2018-03-19T09:19:01.617Z,17.90
2018-03-19T09:20:06.713Z,17.90
2018-03-19T09:21:12.054Z,17.90
2018-03-19T09:22:17.315Z,17.90
2018-03-19T09:23:22.480Z,17.90
2018-03-19T09:24:27.530Z,17.90
2018-03-19T09:25:32.714Z,17.90
2018-03-19T09:26:37.664Z,17.90
2018-03-19T09:27:42.866Z,17.90
2018-03-19T09:28:47.980Z,17.90
2018-03-19T09:29:53.062Z,17.90
2018-03-19T09:30:58.084Z,17.90
2018-03-19T09:32:03.179Z,17.90
2018-03-19T09:33:08.163Z,17.90
2018-03-19T09:34:13.352Z,17.90
2018-03-19T09:35:18.352Z,17.90
2018-03-19T09:36:23.424Z,17.90
2018-03-19T09:37:28.510Z,17.90
2018-03-19T09:38:33.752Z,17.90
2018-03-19T09:39:38.955Z,17.90
2018-03-19T09:40:44.095Z,17.90
2018-03-19T09:41:49.344Z,17.90
2018-03-19T09:42:54.454Z,17.90
2018-03-19T09:43:59.733Z,17.90
2018-03-19T09:45:04.929Z,17.90
2018-03-19T09:46:10.139Z,17.90
2018-03-19T09:47:15.320Z,17.90
2018-03-19T09:48:20.581Z,17.90
2018-03-19T09:49:25.769Z,17.90
2018-03-19T09:50:30.941Z,18.00
2018-03-19T09:51:36.041Z,18.00
2018-03-19T09:52:41.246Z,18.00
2018-03-19T09:53:46.219Z,17.90
2018-03-19T09:54:51.259Z,17.90
2018-03-19T09:55:56.407Z,17.90
2018-03-19T09:57:01.582Z,17.90
2018-03-19T09:58:06.826Z,18.00
2018-03-19T09:59:11.974Z,18.00
2018-03-19T10:00:16.942Z,17.90
2018-03-19T10:01:22.106Z,17.90
2018-03-19T10:02:27.217Z,18.00
2018-03-19T10:03:32.390Z,17.90
2018-03-19T10:04:37.607Z,17.90
2018-03-19T10:05:42.778Z,17.90
2018-03-19T10:06:47.996Z,17.90
2018-03-19T10:07:53.120Z,17.90
2018-03-19T10:08:58.231Z,17.90
2018-03-19T10:10:03.285Z,17.90
2018-03-19T10:11:08.386Z,17.90
2018-03-19T10:12:13.482Z,17.90
2018-03-19T10:13:18.743Z,17.90
2018-03-19T10:14:23.735Z,17.90
2018-03-19T10:15:28.877Z,17.90
2018-03-19T10:16:33.873Z,17.80
2018-03-19T10:17:38.970Z,17.80
2018-03-19T10:18:44.011Z,17.80
2018-03-19T10:19:49.122Z,17.80
2018-03-19T10:20:54.221Z,17.80
2018-03-19T10:21:59.272Z,17.80
2018-03-19T10:23:04.518Z,17.80
2018-03-19T10:24:09.616Z,17.80
2018-03-19T10:25:14.900Z,17.80
2018-03-19T10:26:20.118Z,17.80
2018-03-19T10:27:25.391Z,17.80
2018-03-19T10:28:30.773Z,17.70
2018-03-19T10:29:36.005Z,17.80
2018-03-19T10:30:41.019Z,17.80
2018-03-19T10:31:46.262Z,17.80
2018-03-19T10:32:51.303Z,17.90
2018-03-19T10:33:56.425Z,17.80
2018-03-19T10:35:01.533Z,17.90
2018-03-19T10:36:06.622Z,17.90
2018-03-19T10:37:11.555Z,18.00
2018-03-19T10:38:16.701Z,18.00
2018-03-19T10:39:22.088Z,18.00
2018-03-19T10:40:27.076Z,18.00
2018-03-19T10:41:32.049Z,18.00
2018-03-19T10:42:37.195Z,18.10
2018-03-19T10:43:42.261Z,18.10
2018-03-19T10:44:47.565Z,18.10
2018-03-19T10:45:52.818Z,18.10
2018-03-19T10:46:57.867Z,18.10
2018-03-19T10:48:03.081Z,18.10
2018-03-19T10:49:08.276Z,18.20
2018-03-19T10:50:13.454Z,18.20
2018-03-19T10:51:18.662Z,18.20
2018-03-19T10:52:23.949Z,18.30
2018-03-19T10:53:29.085Z,18.30
2018-03-19T10:54:34.284Z,18.30
2018-03-19T10:55:39.516Z,18.30
2018-03-19T10:56:44.678Z,18.30
2018-03-19T10:57:49.978Z,18.30
2018-03-19T10:58:55.221Z,18.20
2018-03-19T11:00:00.255Z,18.20
2018-03-19T11:01:05.523Z,18.20
2018-03-19T11:02:10.571Z,18.20
2018-03-19T11:03:15.712Z,18.20
2018-03-19T11:04:20.890Z,18.20
2018-03-19T11:05:26.001Z,18.20
2018-03-19T11:06:31.331Z,18.20
2018-03-19T11:07:36.308Z,18.20
2018-03-19T11:08:41.463Z,18.20
2018-03-19T11:09:46.630Z,18.10
2018-03-19T11:10:51.822Z,18.10
2018-03-19T11:11:57.083Z,18.00
2018-03-19T11:13:02.038Z,18.00
2018-03-19T11:14:07.080Z,17.80
2018-03-19T11:15:12.059Z,17.60
2018-03-19T11:16:17.647Z,17.50
2018-03-19T11:17:22.957Z,17.40
2018-03-19T11:18:28.040Z,17.30
2018-03-19T11:19:33.219Z,17.10
2018-03-19T11:20:38.381Z,17.10
2018-03-19T11:21:43.231Z,17.00
2018-03-19T11:22:48.066Z,17.00
2018-03-19T11:23:55.893Z,16.90
2018-03-19T11:25:01.050Z,16.90
2018-03-19T11:26:06.214Z,16.80
2018-03-19T11:27:11.425Z,16.80
2018-03-19T11:28:16.577Z,16.70
2018-03-19T11:29:21.778Z,16.70
2018-03-19T11:30:26.952Z,16.70
2018-03-19T11:31:32.081Z,16.60
2018-03-19T11:32:37.323Z,16.60
2018-03-19T11:33:42.487Z,16.60
2018-03-19T11:34:47.523Z,16.50
2018-03-19T11:35:52.527Z,16.50
2018-03-19T11:36:57.990Z,16.50
2018-03-19T11:38:03.080Z,16.50
2018-03-19T11:39:08.259Z,16.60
2018-03-19T11:40:13.219Z,16.60
2018-03-19T11:41:18.337Z,16.80
2018-03-19T11:42:23.420Z,16.90
2018-03-19T11:43:28.555Z,17.10
2018-03-19T11:44:33.443Z,17.20
2018-03-19T11:45:38.375Z,17.30
2018-03-19T11:46:43.488Z,17.40
2018-03-19T11:47:48.424Z,17.50
2018-03-19T11:48:53.725Z,17.60
2018-03-19T11:49:59.577Z,17.70
2018-03-19T11:51:04.797Z,17.80
2018-03-19T11:52:09.757Z,17.90
2018-03-19T11:53:14.767Z,17.90
2018-03-19T11:54:19.801Z,18.00
2018-03-19T11:55:24.994Z,18.10
2018-03-19T11:56:30.201Z,18.10
2018-03-19T11:57:35.333Z,18.20
2018-03-19T11:58:40.551Z,18.20
2018-03-19T11:59:45.711Z,18.20
2018-03-19T12:00:50.887Z,18.10
2018-03-19T12:01:56.028Z,18.10
2018-03-19T12:03:01.073Z,18.10
2018-03-19T12:04:06.155Z,18.10
2018-03-19T12:05:10.984Z,18.10
2018-03-19T12:06:16.049Z,18.10
2018-03-19T12:07:21.833Z,18.10
2018-03-19T12:08:27.026Z,18.10
2018-03-19T12:09:32.242Z,18.10
2018-03-19T12:10:37.352Z,18.10
2018-03-19T12:11:42.486Z,18.10
2018-03-19T12:12:47.609Z,18.10
2018-03-19T12:13:52.662Z,18.10
2018-03-19T12:14:57.497Z,18.20
2018-03-19T12:16:02.413Z,18.20
2018-03-19T12:17:07.412Z,18.30
2018-03-19T12:18:12.613Z,18.30
2018-03-19T12:19:17.536Z,18.30
2018-03-19T12:20:22.447Z,18.30
2018-03-19T12:21:27.647Z,18.20
2018-03-19T12:22:32.826Z,18.20
2018-03-19T12:23:37.638Z,18.20
2018-03-19T12:24:42.724Z,18.20
2018-03-19T12:25:47.682Z,18.20
2018-03-19T12:26:52.568Z,18.20
2018-03-19T12:27:57.794Z,18.20
2018-03-19T12:29:02.742Z,18.20
2018-03-19T12:30:07.718Z,18.20
2018-03-19T12:31:12.553Z,18.20
2018-03-19T12:32:17.567Z,18.20
2018-03-19T12:33:22.666Z,18.20
2018-03-19T12:34:27.691Z,18.20
2018-03-19T12:35:32.521Z,18.20
2018-03-19T12:36:37.591Z,18.20
2018-03-19T12:37:42.643Z,18.20
2018-03-19T12:38:47.544Z,18.20
2018-03-19T12:39:52.563Z,18.20
2018-03-19T12:40:57.661Z,18.20
2018-03-19T12:42:02.553Z,18.20
2018-03-19T12:43:07.725Z,18.20
2018-03-19T12:44:12.978Z,18.20
2018-03-19T12:45:18.144Z,18.20
2018-03-19T12:46:23.158Z,18.20
2018-03-19T12:47:28.082Z,18.20
2018-03-19T12:48:33.433Z,18.20
2018-03-19T12:49:38.548Z,18.20
2018-03-19T12:50:43.614Z,18.20
2018-03-19T12:51:48.765Z,18.20
2018-03-19T12:52:53.780Z,18.20
2018-03-19T12:53:58.805Z,18.20
2018-03-19T12:55:03.920Z,18.10
2018-03-19T12:56:09.025Z,18.00
2018-03-19T12:57:14.059Z,18.00
2018-03-19T12:58:19.422Z,18.10
2018-03-19T12:59:24.554Z,18.20
2018-03-19T13:00:29.671Z,18.20
2018-03-19T13:01:34.630Z,18.30
2018-03-19T13:02:39.731Z,18.30
2018-03-19T13:03:45.485Z,18.40
2018-03-19T13:04:50.644Z,18.40
2018-03-19T13:05:55.567Z,18.40
2018-03-19T13:07:00.458Z,18.40
2018-03-19T13:08:05.338Z,18.30
2018-03-19T13:09:10.284Z,18.30
2018-03-19T13:10:15.159Z,18.40
2018-03-19T13:11:21.651Z,18.40
2018-03-19T13:12:27.045Z,18.40
2018-03-19T13:13:32.312Z,18.30
2018-03-19T13:14:37.226Z,18.30
2018-03-19T13:15:42.163Z,18.30
2018-03-19T13:16:47.060Z,18.30
2018-03-19T13:17:52.156Z,18.40
2018-03-19T13:18:57.126Z,18.40
2018-03-19T13:20:02.173Z,18.40
2018-03-19T13:21:07.311Z,18.40
2018-03-19T13:22:12.121Z,18.40
2018-03-19T13:23:17.148Z,18.40
2018-03-19T13:24:22.097Z,18.40
2018-03-19T13:25:27.241Z,18.40
2018-03-19T13:26:32.367Z,18.40
2018-03-19T13:27:37.461Z,18.40
2018-03-19T13:28:42.341Z,18.40
2018-03-19T13:29:47.339Z,18.40
2018-03-19T13:30:52.214Z,18.40
2018-03-19T13:31:57.188Z,18.40
2018-03-19T13:33:02.100Z,18.50
2018-03-19T13:34:07.304Z,18.50
2018-03-19T13:35:12.564Z,18.50
2018-03-19T13:36:17.486Z,18.50
2018-03-19T13:37:22.786Z,18.50
2018-03-19T13:38:28.023Z,18.50
2018-03-19T13:39:32.879Z,18.50
2018-03-19T13:40:38.042Z,18.50
2018-03-19T13:41:43.145Z,18.50
2018-03-19T13:42:48.040Z,18.50
2018-03-19T13:43:53.022Z,18.50
2018-03-19T13:44:58.196Z,18.60
2018-03-19T13:46:03.347Z,18.60
2018-03-19T13:47:08.398Z,18.60
2018-03-19T13:48:13.418Z,18.60
2018-03-19T13:49:18.613Z,18.70
2018-03-19T13:50:23.533Z,18.70
2018-03-19T13:51:28.452Z,18.70
2018-03-19T13:52:33.574Z,18.80
2018-03-19T13:53:38.632Z,18.80
2018-03-19T13:54:43.808Z,18.80
2018-03-19T13:55:48.861Z,18.80
2018-03-19T13:56:54.030Z,18.80
2018-03-19T13:57:59.017Z,18.90
2018-03-19T13:59:04.246Z,18.90
2018-03-19T14:00:09.441Z,18.90
2018-03-19T14:01:14.394Z,18.90